createdAt,value
2019-03-19T00:28:00.424Z,5.33
2019-03-19T00:30:29.565Z,3.10
2019-03-19T00:32:58.808Z,3.95
2019-03-19T00:35:28.011Z,4.33
2019-03-19T00:37:57.189Z,5.03
2019-03-19T00:40:26.331Z,3.58
2019-03-19T00:42:55.494Z,3.98
2019-03-19T00:45:24.631Z,5.22
2019-03-19T00:47:53.775Z,3.25
2019-03-19T00:56:21.999Z,7.15
2019-03-19T00:58:51.129Z,3.62
2019-03-19T01:02:58.818Z,3.22
2019-03-19T01:05:27.958Z,5.55
2019-03-19T01:07:57.202Z,10.00
2019-03-19T01:10:26.406Z,9.80
2019-03-19T01:12:55.580Z,4.50
2019-03-19T01:15:24.726Z,10.23
2019-03-19T01:17:53.874Z,6.28
2019-03-19T01:20:23.013Z,6.80
2019-03-19T01:22:52.303Z,9.38
2019-03-19T01:25:21.475Z,8.23
2019-03-19T01:27:50.611Z,5.60
2019-03-19T01:30:19.898Z,3.42
2019-03-19T01:32:49.043Z,6.20
2019-03-19T01:35:18.211Z,4.97
2019-03-19T01:37:47.791Z,4.50
2019-03-19T01:40:16.966Z,4.12
2019-03-19T01:42:46.131Z,5.87
2019-03-19T01:45:15.316Z,4.20
2019-03-19T01:47:44.453Z,4.70
2019-03-19T01:50:17.087Z,4.62
2019-03-19T01:52:46.266Z,5.08
2019-03-19T01:55:16.287Z,4.25
2019-03-19T01:57:45.427Z,3.95
2019-03-19T02:00:17.934Z,5.37
2019-03-19T02:02:47.072Z,4.83
2019-03-19T02:05:16.198Z,3.80
2019-03-19T02:07:45.379Z,4.42
2019-03-19T02:10:15.465Z,4.83
2019-03-19T02:12:44.604Z,5.12
2019-03-19T02:15:18.639Z,4.92
2019-03-19T02:17:47.828Z,4.67
2019-03-19T02:20:18.462Z,4.87
2019-03-19T02:22:47.605Z,9.90
2019-03-19T02:26:00.494Z,6.20
2019-03-19T02:28:29.640Z,5.37
2019-03-19T02:30:58.815Z,4.42
2019-03-19T02:33:27.993Z,7.30
2019-03-19T02:35:57.191Z,7.35
2019-03-19T02:38:26.561Z,3.42
2019-03-19T02:40:55.701Z,6.20
2019-03-19T02:43:24.850Z,4.20
2019-03-19T02:45:53.991Z,6.33
2019-03-19T02:48:23.154Z,6.25
2019-03-19T02:50:52.290Z,5.42
2019-03-19T02:53:21.771Z,5.65
2019-03-19T02:55:50.905Z,3.98
2019-03-19T02:58:20.236Z,3.55
2019-03-19T03:00:49.514Z,4.90
2019-03-19T03:03:18.684Z,4.83
2019-03-19T03:05:47.990Z,4.22
2019-03-19T03:08:17.165Z,4.28
2019-03-19T03:10:46.302Z,3.70
2019-03-19T03:13:15.478Z,4.35
2019-03-19T03:15:44.659Z,2.90
2019-03-19T03:18:13.847Z,4.37
2019-03-19T03:20:42.997Z,3.10
2019-03-19T03:23:12.124Z,4.17
2019-03-19T03:25:41.264Z,3.15
2019-03-19T03:28:10.459Z,4.45
2019-03-19T03:30:39.702Z,4.17
2019-03-19T03:33:08.828Z,4.72
2019-03-19T03:35:37.978Z,3.45
2019-03-19T03:38:07.106Z,3.27
2019-03-19T03:40:36.283Z,3.27
2019-03-19T03:43:05.433Z,5.25
2019-03-19T03:45:34.611Z,3.67
2019-03-19T03:48:04.210Z,5.20
2019-03-19T03:50:33.378Z,4.00
2019-03-19T03:53:02.517Z,3.17
2019-03-19T03:55:31.707Z,3.90
2019-03-19T03:58:00.893Z,4.35
2019-03-19T04:00:30.062Z,4.40
2019-03-19T04:02:59.269Z,2.85
2019-03-19T04:05:28.453Z,2.95
2019-03-19T04:07:57.603Z,3.17
2019-03-19T04:10:27.631Z,3.10
2019-03-19T04:12:57.117Z,4.15
2019-03-19T04:15:26.253Z,2.75
2019-03-19T04:17:55.458Z,3.22
2019-03-19T04:20:24.635Z,4.10
2019-03-19T04:22:53.779Z,4.10
2019-03-19T04:25:22.915Z,6.87
2019-03-19T04:27:52.057Z,3.08
2019-03-19T04:30:21.710Z,2.90
2019-03-19T04:32:50.888Z,3.83
2019-03-19T04:35:20.022Z,3.10
2019-03-19T04:37:49.162Z,2.87
2019-03-19T04:40:18.585Z,2.62
2019-03-19T04:42:47.769Z,2.90
2019-03-19T04:45:17.759Z,4.47
2019-03-19T04:47:46.962Z,3.15
2019-03-19T04:50:17.357Z,3.47
2019-03-19T04:52:46.546Z,3.98
2019-03-19T04:55:18.608Z,3.05
2019-03-19T04:57:47.746Z,3.00
2019-03-19T05:00:18.530Z,3.45
2019-03-19T05:02:47.696Z,3.98
2019-03-19T05:05:16.839Z,3.30
2019-03-19T05:07:46.010Z,2.77
2019-03-19T05:10:19.094Z,3.42
2019-03-19T05:12:48.414Z,2.77
2019-03-19T05:15:17.593Z,2.70
2019-03-19T05:17:46.725Z,2.80
2019-03-19T05:20:19.890Z,3.05
2019-03-19T05:22:49.025Z,2.85
2019-03-19T05:25:18.169Z,2.85
2019-03-19T05:27:47.316Z,3.12
2019-03-19T05:30:20.841Z,2.55
2019-03-19T05:32:50.018Z,3.50
2019-03-19T05:35:19.200Z,2.67
2019-03-19T05:37:48.552Z,2.60
2019-03-19T05:40:18.401Z,2.72
2019-03-19T05:42:47.544Z,3.58
2019-03-19T05:45:17.221Z,2.65
2019-03-19T05:47:46.365Z,2.62
2019-03-19T05:50:19.321Z,3.70
2019-03-19T05:52:48.914Z,4.10
2019-03-19T05:55:18.410Z,2.92
2019-03-19T05:57:49.940Z,2.87
2019-03-19T06:00:33.539Z,3.20
2019-03-19T06:03:02.683Z,3.02
2019-03-19T06:05:31.863Z,2.80
2019-03-19T06:08:01.225Z,3.05
2019-03-19T06:10:30.362Z,3.22
2019-03-19T06:12:59.501Z,3.52
2019-03-19T06:15:28.716Z,2.35
2019-03-19T06:17:57.889Z,2.50
2019-03-19T06:20:27.068Z,3.02
2019-03-19T06:22:56.255Z,5.55
2019-03-19T06:25:25.446Z,4.15
2019-03-19T06:28:00.446Z,5.30
2019-03-19T06:30:26.133Z,4.15
2019-03-19T06:32:55.342Z,4.83
2019-03-19T06:35:24.621Z,3.85
2019-03-19T06:37:53.912Z,5.58
2019-03-19T06:40:23.692Z,7.45
2019-03-19T06:42:52.873Z,7.17
2019-03-19T06:45:23.190Z,8.35
2019-03-19T06:47:52.701Z,12.13
2019-03-19T06:50:22.848Z,7.03
2019-03-19T06:52:52.230Z,7.97
2019-03-19T06:55:21.993Z,11.60
2019-03-19T06:57:51.516Z,101.72
2019-03-19T07:00:25.476Z,72.75
2019-03-19T07:02:54.716Z,100.55
2019-03-19T07:05:23.961Z,78.20
2019-03-19T07:07:53.135Z,62.05
2019-03-19T07:10:22.596Z,43.75
2019-03-19T07:12:51.775Z,41.73
2019-03-19T07:15:23.429Z,42.00
2019-03-19T07:17:52.580Z,34.08
2019-03-19T07:20:23.773Z,33.63
2019-03-19T07:22:53.143Z,23.77
2019-03-19T07:25:22.330Z,29.80
2019-03-19T07:27:51.693Z,28.83
2019-03-19T07:30:25.226Z,22.87
2019-03-19T07:32:54.490Z,26.85
2019-03-19T07:35:23.634Z,22.27
2019-03-19T07:37:52.814Z,18.20
2019-03-19T07:40:21.963Z,21.55
2019-03-19T07:42:51.139Z,19.40
2019-03-19T07:45:25.764Z,14.98
2019-03-19T07:47:54.942Z,17.82
2019-03-19T07:50:24.995Z,19.12
2019-03-19T07:52:54.247Z,14.47
2019-03-19T07:55:23.414Z,15.75
2019-03-19T07:57:52.704Z,13.40
2019-03-19T08:00:23.122Z,13.95
2019-03-19T08:02:52.252Z,18.17
2019-03-19T08:05:32.247Z,13.90
2019-03-19T08:07:52.465Z,15.30
2019-03-19T08:10:21.649Z,12.37
2019-03-19T08:12:50.828Z,10.50
2019-03-19T08:15:23.472Z,11.60
2019-03-19T08:17:52.628Z,11.93
2019-03-19T08:20:21.873Z,10.72
2019-03-19T08:22:51.062Z,10.25
2019-03-19T08:25:20.205Z,27.77
2019-03-19T08:27:49.378Z,21.15
2019-03-19T08:30:28.170Z,18.95
2019-03-19T08:32:57.313Z,14.28
2019-03-19T08:35:26.499Z,13.32
2019-03-19T08:37:55.674Z,16.57
2019-03-19T08:40:24.819Z,14.00
2019-03-19T08:42:53.985Z,13.08
2019-03-19T08:45:25.240Z,10.45
2019-03-19T08:47:54.379Z,15.93
2019-03-19T08:50:24.400Z,14.23
2019-03-19T08:52:55.463Z,13.00
2019-03-19T08:55:24.838Z,11.93
2019-03-19T08:57:53.978Z,11.43
2019-03-19T09:00:26.487Z,10.90
2019-03-19T09:02:55.639Z,15.00
2019-03-19T09:05:24.820Z,12.18
2019-03-19T09:07:54.130Z,9.93
2019-03-19T09:10:23.303Z,13.78
2019-03-19T09:12:52.538Z,19.85
2019-03-19T09:15:25.100Z,12.13
2019-03-19T09:17:54.242Z,11.88
2019-03-19T09:20:23.386Z,23.25
2019-03-19T09:22:52.571Z,17.27
2019-03-19T09:25:21.811Z,18.87
2019-03-19T09:27:51.250Z,15.10
2019-03-19T09:30:23.014Z,16.75
2019-03-19T09:32:52.312Z,16.02
2019-03-19T09:35:21.449Z,18.37
2019-03-19T09:37:58.507Z,12.60
2019-03-19T09:40:23.316Z,11.40
2019-03-19T09:42:52.495Z,13.48
2019-03-19T09:45:21.663Z,16.02
2019-03-19T09:47:50.850Z,13.70
2019-03-19T09:50:22.299Z,16.25
2019-03-19T09:52:51.471Z,20.27
2019-03-19T09:55:20.656Z,12.73
2019-03-19T09:57:49.854Z,17.87
2019-03-19T10:00:25.059Z,15.80
2019-03-19T10:02:54.199Z,14.25
2019-03-19T10:05:23.416Z,13.53
2019-03-19T10:07:52.595Z,11.93
2019-03-19T10:10:24.457Z,16.25
2019-03-19T10:12:53.699Z,11.75
2019-03-19T10:15:22.824Z,13.32
2019-03-19T10:17:51.997Z,14.58
2019-03-19T10:20:26.199Z,13.65
2019-03-19T10:22:55.383Z,13.22
2019-03-19T10:25:24.568Z,14.33
2019-03-19T10:27:53.715Z,9.28
2019-03-19T10:30:24.420Z,18.75
2019-03-19T10:32:53.599Z,12.98
2019-03-19T10:35:22.790Z,12.75
2019-03-19T10:37:51.948Z,12.95
2019-03-19T10:40:22.170Z,11.65
2019-03-19T10:42:51.376Z,12.18
2019-03-19T10:45:26.962Z,14.40
2019-03-19T10:47:56.164Z,13.18
2019-03-19T10:50:28.971Z,13.13
2019-03-19T10:52:58.455Z,10.95
2019-03-19T10:55:28.106Z,9.90
2019-03-19T10:57:57.287Z,12.82
2019-03-19T11:00:27.332Z,14.47
2019-03-19T11:02:56.544Z,14.33
2019-03-19T11:05:26.243Z,15.55
2019-03-19T11:07:55.431Z,11.20
2019-03-19T11:10:24.782Z,11.30
2019-03-19T11:12:53.919Z,10.78
2019-03-19T11:15:25.912Z,12.43
2019-03-19T11:17:55.100Z,10.38
2019-03-19T11:20:24.235Z,12.18
2019-03-19T11:22:53.433Z,11.57
2019-03-19T11:25:28.279Z,14.20
2019-03-19T11:27:57.465Z,15.35
2019-03-19T11:30:32.131Z,9.68
2019-03-19T11:33:01.277Z,12.98
2019-03-19T11:35:30.453Z,10.85
2019-03-19T11:37:59.638Z,12.15
2019-03-19T11:40:28.845Z,15.68
2019-03-19T11:42:58.025Z,13.05
2019-03-19T11:45:27.171Z,10.48
2019-03-19T11:47:56.344Z,13.65
2019-03-19T11:50:28.427Z,13.35
2019-03-19T11:52:57.575Z,11.93
2019-03-19T11:55:26.788Z,10.48
2019-03-19T11:57:57.629Z,13.58
2019-03-19T12:00:34.838Z,13.75
2019-03-19T12:03:12.696Z,15.00
2019-03-19T12:05:35.200Z,10.63
2019-03-19T12:08:04.994Z,9.55
2019-03-19T12:10:34.149Z,13.03
2019-03-19T12:13:03.336Z,11.78
2019-03-19T12:15:32.518Z,13.90
2019-03-19T12:18:01.708Z,15.70
2019-03-19T12:20:30.878Z,11.70
2019-03-19T12:23:00.286Z,14.15
2019-03-19T12:25:31.259Z,15.63
2019-03-19T12:28:00.339Z,13.25
2019-03-19T12:30:29.534Z,17.48
2019-03-19T12:32:58.678Z,16.85
2019-03-19T12:35:27.821Z,14.10
2019-03-19T12:37:57.008Z,13.22
2019-03-19T12:40:36.249Z,17.55
2019-03-19T12:42:57.131Z,18.52
2019-03-19T12:45:26.301Z,16.82
2019-03-19T12:47:55.592Z,17.45
2019-03-19T12:50:26.579Z,17.00
2019-03-19T12:52:55.731Z,12.40
2019-03-19T12:55:24.876Z,17.07
2019-03-19T12:57:54.025Z,18.77
2019-03-19T13:00:34.046Z,18.07
2019-03-19T13:02:57.364Z,17.35
2019-03-19T13:05:26.544Z,17.35
2019-03-19T13:07:55.718Z,20.05
2019-03-19T13:10:25.538Z,16.40
2019-03-19T13:12:54.721Z,17.12
2019-03-19T13:15:23.870Z,16.55
2019-03-19T13:17:53.157Z,18.20
2019-03-19T13:20:23.642Z,18.87
2019-03-19T13:22:52.787Z,15.72
2019-03-19T13:25:23.745Z,21.15
2019-03-19T13:27:52.892Z,13.43
2019-03-19T13:30:28.462Z,11.53
2019-03-19T13:32:57.641Z,15.45
2019-03-19T13:35:26.989Z,13.32
2019-03-19T13:37:56.181Z,15.40
2019-03-19T13:40:25.328Z,12.98
2019-03-19T13:42:54.797Z,14.53
2019-03-19T13:45:24.780Z,11.15
2019-03-19T13:47:53.976Z,15.32
2019-03-19T13:50:23.629Z,12.37
2019-03-19T13:52:52.818Z,17.32
2019-03-19T13:55:24.939Z,11.40
2019-03-19T13:57:54.081Z,15.40
2019-03-19T14:00:23.228Z,18.45
2019-03-19T14:02:52.378Z,40.35
2019-03-19T14:05:21.556Z,28.35
2019-03-19T14:07:50.736Z,18.82
2019-03-19T14:10:20.768Z,18.42
2019-03-19T14:12:49.915Z,18.40
2019-03-19T14:15:27.357Z,16.50
2019-03-19T14:17:56.544Z,19.40
2019-03-19T14:20:25.725Z,17.57
2019-03-19T14:22:54.867Z,14.65
2019-03-19T14:25:24.027Z,15.78
2019-03-19T14:27:53.254Z,13.70
2019-03-19T14:30:29.157Z,21.65
2019-03-19T14:32:58.345Z,14.50
2019-03-19T14:35:36.957Z,16.57
2019-03-19T14:37:58.448Z,19.90
2019-03-19T14:40:27.957Z,19.65
2019-03-19T14:43:00.074Z,18.42
2019-03-19T14:45:28.055Z,18.60
2019-03-19T14:47:57.240Z,15.65
2019-03-19T14:50:29.385Z,18.40
2019-03-19T14:52:58.573Z,17.52
2019-03-19T14:55:27.782Z,20.97
2019-03-19T14:57:56.922Z,15.93
2019-03-19T15:00:26.110Z,15.40
2019-03-19T15:02:55.261Z,16.40
2019-03-19T15:05:24.570Z,17.17
2019-03-19T15:07:53.750Z,16.73
2019-03-19T15:10:24.503Z,16.65
2019-03-19T15:12:53.641Z,17.70
2019-03-19T15:15:23.434Z,18.45
2019-03-19T15:17:52.580Z,20.55
2019-03-19T15:20:27.259Z,20.25
2019-03-19T15:22:56.437Z,20.32
2019-03-19T15:25:25.615Z,17.37
2019-03-19T15:27:54.797Z,16.00
2019-03-19T15:30:23.970Z,16.97
2019-03-19T15:32:53.117Z,20.92
2019-03-19T15:35:22.260Z,14.90
2019-03-19T15:37:51.726Z,20.72
2019-03-19T15:40:23.653Z,20.02
2019-03-19T15:42:52.950Z,18.70
2019-03-19T15:45:28.194Z,17.00
2019-03-19T15:47:57.337Z,17.73
2019-03-19T15:50:26.525Z,17.32
2019-03-19T15:52:55.702Z,12.60
2019-03-19T15:55:24.882Z,17.65
2019-03-19T15:57:54.039Z,18.07
2019-03-19T16:00:23.175Z,15.80
2019-03-19T16:02:52.353Z,13.93
2019-03-19T16:05:21.557Z,15.88
2019-03-19T16:07:50.703Z,15.15
2019-03-19T16:10:19.922Z,20.30
2019-03-19T16:12:49.074Z,16.35
2019-03-19T16:15:24.324Z,15.20
2019-03-19T16:17:53.469Z,19.45
2019-03-19T16:20:23.353Z,16.82
2019-03-19T16:22:52.523Z,15.58
2019-03-19T16:25:21.754Z,19.10
2019-03-19T16:27:50.935Z,17.32
2019-03-19T16:30:23.007Z,17.50
2019-03-19T16:32:52.143Z,14.38
2019-03-19T16:35:21.326Z,17.20
2019-03-19T16:37:50.470Z,22.13
2019-03-19T16:40:24.809Z,20.65
2019-03-19T16:42:53.956Z,15.10
2019-03-19T16:45:23.136Z,16.05
2019-03-19T16:47:52.324Z,16.00
2019-03-19T16:50:23.252Z,17.45
2019-03-19T16:52:52.411Z,16.90
2019-03-19T16:55:22.925Z,18.67
2019-03-19T16:57:52.341Z,24.00
2019-03-19T17:00:30.192Z,17.25
2019-03-19T17:02:59.419Z,16.07
2019-03-19T17:05:28.596Z,23.38
2019-03-19T17:07:57.755Z,18.95
2019-03-19T17:10:30.507Z,22.50
2019-03-19T17:12:59.660Z,20.40
2019-03-19T17:15:28.832Z,23.05
2019-03-19T17:17:57.981Z,20.40
2019-03-19T17:20:27.200Z,25.97
2019-03-19T17:22:56.369Z,23.15
2019-03-19T17:25:27.117Z,20.95
2019-03-19T17:27:56.412Z,19.77
2019-03-19T17:30:29.147Z,21.27
2019-03-19T17:32:58.474Z,22.70
2019-03-19T17:35:28.391Z,21.40
2019-03-19T17:37:57.523Z,20.48
2019-03-19T17:40:26.655Z,19.00
2019-03-19T17:42:55.791Z,17.45
2019-03-19T17:45:24.969Z,16.15
2019-03-19T17:47:54.106Z,16.90
2019-03-19T17:50:33.229Z,15.65
2019-03-19T17:53:02.383Z,16.37
2019-03-19T17:55:31.549Z,14.40
2019-03-19T17:58:00.710Z,11.95
2019-03-19T18:00:31.631Z,15.10
2019-03-19T18:03:00.786Z,13.90
2019-03-19T18:05:30.316Z,12.78
2019-03-19T18:07:59.449Z,11.95
2019-03-19T18:10:28.743Z,11.35
2019-03-19T18:12:57.887Z,13.00
2019-03-19T18:15:27.032Z,10.03
2019-03-19T18:17:56.163Z,11.57
2019-03-19T18:20:25.341Z,14.00
2019-03-19T18:22:54.478Z,13.30
2019-03-19T18:25:23.618Z,11.33
2019-03-19T18:27:52.768Z,9.25
2019-03-19T18:30:26.229Z,10.55
2019-03-19T18:32:55.428Z,13.53
2019-03-19T18:35:24.567Z,11.33
2019-03-19T18:37:53.710Z,10.78
2019-03-19T18:40:22.849Z,10.50
2019-03-19T18:42:51.993Z,9.50
2019-03-19T18:45:22.277Z,11.60
2019-03-19T18:47:51.404Z,7.83
2019-03-19T18:50:24.245Z,11.83
2019-03-19T18:52:53.388Z,10.18
2019-03-19T18:55:22.515Z,8.68
2019-03-19T18:57:51.669Z,11.55
2019-03-19T19:00:23.663Z,8.80
2019-03-19T19:02:52.805Z,9.80
2019-03-19T19:05:24.086Z,9.80
2019-03-19T19:07:53.224Z,8.58
2019-03-19T19:10:22.396Z,8.95
2019-03-19T19:12:51.602Z,9.08
2019-03-19T19:15:22.622Z,10.13
2019-03-19T19:17:51.790Z,9.90
2019-03-19T19:20:21.957Z,8.93
2019-03-19T19:22:51.296Z,8.93
2019-03-19T19:25:25.567Z,7.35
2019-03-19T19:27:54.745Z,9.43
2019-03-19T19:30:28.695Z,9.85
2019-03-19T19:33:02.181Z,10.28
2019-03-19T19:35:28.748Z,10.95
2019-03-19T19:37:57.877Z,7.17
2019-03-19T19:40:27.016Z,5.87
2019-03-19T19:42:56.159Z,8.80
2019-03-19T19:45:25.311Z,8.25
2019-03-19T19:47:54.488Z,9.03
2019-03-19T19:50:24.348Z,13.30
2019-03-19T19:52:53.479Z,13.45
2019-03-19T19:55:22.631Z,16.23
2019-03-19T19:57:51.848Z,25.50
2019-03-19T20:00:22.508Z,29.35
2019-03-19T20:02:51.648Z,29.05
2019-03-19T20:05:20.800Z,30.35
2019-03-19T20:07:49.968Z,28.60
2019-03-19T20:10:28.664Z,25.92
2019-03-19T20:15:26.289Z,26.25
2019-03-19T20:17:55.433Z,28.85
2019-03-19T20:20:28.544Z,21.00
2019-03-19T20:22:57.693Z,24.35
2019-03-19T20:25:26.851Z,25.92
2019-03-19T20:27:55.990Z,22.95
2019-03-19T20:30:29.428Z,18.52
2019-03-19T20:32:58.588Z,20.17
2019-03-19T20:35:27.737Z,19.42
2019-03-19T20:37:56.870Z,19.50
2019-03-19T20:40:26.045Z,20.57
2019-03-19T20:42:55.181Z,19.50
2019-03-19T20:45:30.241Z,19.25
2019-03-19T20:47:59.394Z,18.05
2019-03-19T20:50:37.675Z,21.80
2019-03-19T20:53:06.823Z,19.85
2019-03-19T20:55:35.970Z,20.68
2019-03-19T20:58:05.870Z,21.87
2019-03-19T21:00:35.042Z,20.85
2019-03-19T21:03:04.755Z,16.82
2019-03-19T21:05:33.895Z,16.15
2019-03-19T21:08:03.045Z,17.35
2019-03-19T21:10:32.664Z,15.93
2019-03-19T21:13:01.814Z,16.37
2019-03-19T21:15:31.863Z,15.50
2019-03-19T21:18:01.032Z,15.95
2019-03-19T21:20:30.169Z,17.02
2019-03-19T21:22:59.457Z,16.60
2019-03-19T21:25:28.630Z,14.90
2019-03-19T21:27:57.779Z,14.78
2019-03-19T21:30:27.181Z,16.35
2019-03-19T21:32:56.317Z,13.32
2019-03-19T21:35:28.265Z,16.20
2019-03-19T21:37:57.611Z,15.65
2019-03-19T21:40:26.767Z,19.75
2019-03-19T21:42:55.960Z,16.40
2019-03-19T21:45:25.095Z,17.32
2019-03-19T21:47:54.578Z,17.87
2019-03-19T21:50:25.737Z,14.68
2019-03-19T21:52:54.886Z,14.75
2019-03-19T21:55:24.027Z,15.75
2019-03-19T21:57:53.174Z,15.30
2019-03-19T22:00:27.017Z,14.43
2019-03-19T22:02:56.161Z,14.60
2019-03-19T22:05:25.537Z,15.90
2019-03-19T22:07:54.686Z,16.23
2019-03-19T22:10:24.107Z,15.38
2019-03-19T22:12:53.247Z,17.00
2019-03-19T22:15:26.456Z,14.87
2019-03-19T22:17:55.622Z,15.58
2019-03-19T22:20:24.767Z,14.93
2019-03-19T22:22:53.910Z,12.68
2019-03-19T22:25:26.243Z,13.80
2019-03-19T22:27:55.396Z,14.45
2019-03-19T22:30:24.529Z,15.40
2019-03-19T22:32:53.672Z,10.40
2019-03-19T22:35:22.820Z,12.65
2019-03-19T22:37:51.990Z,13.83
2019-03-19T22:40:21.122Z,13.65
2019-03-19T22:42:50.262Z,12.63
2019-03-19T22:45:20.159Z,12.18
2019-03-19T22:47:49.267Z,12.30
2019-03-19T22:50:19.050Z,14.47
2019-03-19T22:52:48.221Z,14.00
2019-03-19T22:55:28.090Z,12.85
2019-03-19T22:57:48.508Z,9.78
2019-03-19T23:00:33.744Z,10.88
2019-03-19T23:03:02.922Z,11.60
2019-03-19T23:05:32.232Z,13.28
2019-03-19T23:08:01.372Z,13.95
2019-03-19T23:10:30.532Z,12.10
2019-03-19T23:12:59.680Z,13.95
2019-03-19T23:15:28.813Z,12.60
2019-03-19T23:17:57.961Z,13.55
2019-03-19T23:20:27.352Z,14.90
2019-03-19T23:22:56.539Z,13.58
2019-03-19T23:25:25.696Z,11.75
2019-03-19T23:27:54.835Z,12.90
2019-03-19T23:30:25.375Z,14.10
2019-03-19T23:32:54.504Z,12.82
2019-03-19T23:35:23.640Z,12.53
2019-03-19T23:37:52.785Z,13.70
2019-03-19T23:40:22.862Z,13.50
2019-03-19T23:42:52.003Z,10.68
2019-03-19T23:45:21.147Z,13.68
2019-03-19T23:47:50.292Z,12.63
2019-03-19T23:50:20.737Z,13.85
2019-03-19T23:52:49.917Z,12.18
2019-03-19T23:55:19.064Z,11.80
2019-03-19T23:57:48.196Z,13.35
